createdAt,value
2019-02-23T00:00:48.340Z,29.70
2019-02-23T00:03:21.531Z,29.60
2019-02-23T00:05:55.116Z,29.80
2019-02-23T00:08:28.906Z,30.00
2019-02-23T00:11:03.127Z,30.60
2019-02-23T00:13:36.380Z,30.40
2019-02-23T00:16:10.258Z,30.60
2019-02-23T00:18:44.146Z,30.60
2019-02-23T00:21:17.409Z,30.70
2019-02-23T00:23:51.248Z,31.30
2019-02-23T00:26:25.066Z,30.40
2019-02-23T00:28:59.487Z,30.90
2019-02-23T00:31:33.220Z,31.10
2019-02-23T00:34:07.228Z,31.50
2019-02-23T00:36:40.538Z,32.30
2019-02-23T00:39:14.802Z,32.30
2019-02-23T00:41:49.369Z,32.30
2019-02-23T00:44:23.927Z,32.40
2019-02-23T00:46:57.716Z,32.30
2019-02-23T00:49:36.429Z,32.30
2019-02-23T00:52:05.532Z,32.30
2019-02-23T00:54:39.364Z,32.30
2019-02-23T00:57:13.529Z,32.30
2019-02-23T00:59:48.335Z,32.30
2019-02-23T01:02:21.635Z,32.40
2019-02-23T01:04:54.892Z,32.30
2019-02-23T01:07:29.773Z,32.20
2019-02-23T01:10:03.440Z,32.20
2019-02-23T01:12:36.218Z,32.00
2019-02-23T01:15:10.582Z,32.60
2019-02-23T01:17:44.365Z,32.90
2019-02-23T01:20:18.137Z,32.60
2019-02-23T01:22:51.979Z,32.80
2019-02-23T01:25:25.825Z,32.70
2019-02-23T01:27:59.558Z,32.30
2019-02-23T01:30:33.801Z,32.30
2019-02-23T01:33:07.972Z,32.30
2019-02-23T01:35:42.516Z,32.50
2019-02-23T01:38:16.169Z,32.50
2019-02-23T01:40:49.456Z,32.40
2019-02-23T01:43:23.785Z,32.70
2019-02-23T01:45:57.346Z,33.00
2019-02-23T01:48:31.103Z,32.50
2019-02-23T01:51:04.992Z,33.60
2019-02-23T01:53:38.225Z,33.00
2019-02-23T01:56:12.433Z,33.40
2019-02-23T01:58:46.738Z,33.20
2019-02-23T02:01:20.112Z,33.20
2019-02-23T02:03:54.024Z,33.20
2019-02-23T02:06:27.347Z,32.90
2019-02-23T02:09:00.135Z,33.30
2019-02-23T02:11:34.972Z,33.10
2019-02-23T02:14:09.431Z,33.00
2019-02-23T02:16:43.246Z,32.50
2019-02-23T02:19:16.476Z,32.40
2019-02-23T02:21:51.176Z,32.20
2019-02-23T02:24:24.589Z,32.30
2019-02-23T02:26:59.001Z,32.20
2019-02-23T02:29:32.705Z,32.20
2019-02-23T02:32:06.635Z,32.20
2019-02-23T02:34:41.523Z,32.20
2019-02-23T02:37:15.253Z,32.30
2019-02-23T02:39:49.462Z,32.30
2019-02-23T02:42:22.760Z,32.40
2019-02-23T02:44:55.687Z,32.00
2019-02-23T02:47:29.867Z,31.50
2019-02-23T02:50:04.106Z,31.10
2019-02-23T02:52:37.270Z,31.10
2019-02-23T02:55:11.461Z,31.00
2019-02-23T02:57:45.622Z,31.00
2019-02-23T03:00:20.505Z,31.30
2019-02-23T03:02:54.360Z,31.20
2019-02-23T03:05:28.208Z,30.80
2019-02-23T03:08:01.573Z,30.80
2019-02-23T03:10:35.393Z,30.80
2019-02-23T03:13:08.272Z,31.10
2019-02-23T03:15:42.068Z,31.10
2019-02-23T03:18:15.947Z,31.00
2019-02-23T03:20:49.782Z,31.00
2019-02-23T03:23:23.974Z,31.30
2019-02-23T03:25:57.777Z,31.70
2019-02-23T03:28:31.510Z,32.00
2019-02-23T03:31:05.516Z,32.20
2019-02-23T03:33:38.755Z,32.00
2019-02-23T03:36:12.536Z,32.00
2019-02-23T03:38:45.935Z,33.00
2019-02-23T03:41:19.759Z,32.60
2019-02-23T03:43:53.559Z,32.80
2019-02-23T03:46:27.032Z,33.00
2019-02-23T03:49:01.077Z,33.00
2019-02-23T03:51:34.388Z,32.70
2019-02-23T03:54:08.239Z,32.80
2019-02-23T03:56:42.024Z,32.30
2019-02-23T03:59:15.662Z,32.30
2019-02-23T04:01:49.428Z,32.40
2019-02-23T04:04:23.682Z,32.50
2019-02-23T04:06:58.201Z,32.10
2019-02-23T04:09:31.445Z,31.90
2019-02-23T04:12:05.173Z,31.70
2019-02-23T04:14:38.460Z,31.50
2019-02-23T04:17:11.564Z,31.60
2019-02-23T04:19:44.931Z,32.00
2019-02-23T04:22:19.138Z,32.10
2019-02-23T04:24:53.892Z,32.00
2019-02-23T04:27:28.137Z,32.20
2019-02-23T04:30:02.317Z,32.10
2019-02-23T04:32:35.574Z,32.50
2019-02-23T04:35:08.148Z,32.50
2019-02-23T04:37:41.546Z,32.60
2019-02-23T04:40:16.172Z,32.50
2019-02-23T04:42:48.956Z,32.60
2019-02-23T04:45:23.196Z,32.70
2019-02-23T04:47:56.052Z,32.90
2019-02-23T04:50:29.428Z,32.80
2019-02-23T04:53:03.796Z,33.00
2019-02-23T04:55:37.793Z,33.30
2019-02-23T04:58:12.247Z,33.00
2019-02-23T05:00:45.543Z,33.20
2019-02-23T05:03:20.178Z,33.40
2019-02-23T05:05:53.938Z,33.30
2019-02-23T05:08:28.167Z,33.40
2019-02-23T05:11:01.479Z,33.40
2019-02-23T05:13:35.720Z,33.60
2019-02-23T05:16:08.959Z,33.70
2019-02-23T05:18:42.199Z,33.60
2019-02-23T05:21:25.954Z,33.60
2019-02-23T05:23:50.830Z,33.50
2019-02-23T05:26:24.085Z,33.40
2019-02-23T05:28:57.024Z,33.50
2019-02-23T05:31:31.319Z,33.30
2019-02-23T05:34:04.720Z,33.10
2019-02-23T05:36:37.601Z,32.90
2019-02-23T05:39:11.950Z,32.80
2019-02-23T05:41:45.258Z,32.90
2019-02-23T05:44:18.583Z,33.00
2019-02-23T05:46:52.438Z,32.90
2019-02-23T05:49:25.707Z,33.20
2019-02-23T05:51:59.377Z,33.50
2019-02-23T05:54:33.800Z,33.40
2019-02-23T05:57:07.544Z,33.20
2019-02-23T05:59:40.895Z,33.30
2019-02-23T06:02:15.463Z,33.40
2019-02-23T06:04:49.673Z,33.70
2019-02-23T06:07:23.103Z,34.30
2019-02-23T06:09:56.440Z,34.40
2019-02-23T06:12:30.676Z,34.70
2019-02-23T06:15:03.942Z,34.50
2019-02-23T06:17:37.867Z,34.50
2019-02-23T06:20:13.103Z,34.50
2019-02-23T06:22:47.039Z,34.30
2019-02-23T06:25:21.009Z,34.20
2019-02-23T06:27:54.742Z,34.20
2019-02-23T06:30:28.951Z,33.90
2019-02-23T06:33:04.177Z,33.80
2019-02-23T06:35:37.533Z,34.10
2019-02-23T06:38:10.554Z,34.10
2019-02-23T06:40:44.318Z,33.90
2019-02-23T06:43:17.841Z,33.90
2019-02-23T06:45:50.927Z,34.20
2019-02-23T06:48:24.849Z,34.30
2019-02-23T06:51:00.408Z,33.90
2019-02-23T06:53:32.879Z,34.10
2019-02-23T06:56:12.458Z,34.00
2019-02-23T06:58:46.403Z,33.90
2019-02-23T07:01:20.432Z,33.70
2019-02-23T07:03:53.885Z,33.80
2019-02-23T07:06:27.165Z,33.60
2019-02-23T07:08:59.661Z,33.50
2019-02-23T07:11:32.839Z,33.90
2019-02-23T07:14:06.274Z,34.10
2019-02-23T07:16:40.193Z,33.50
2019-02-23T07:19:15.716Z,33.00
2019-02-23T07:21:49.300Z,32.50
2019-02-23T07:24:24.401Z,32.50
2019-02-23T07:26:59.624Z,32.70
2019-02-23T07:29:34.290Z,32.70
2019-02-23T07:32:08.774Z,32.50
2019-02-23T07:34:41.845Z,32.20
2019-02-23T07:37:15.988Z,32.40
2019-02-23T07:39:50.535Z,31.80
2019-02-23T07:42:23.417Z,31.70
2019-02-23T07:44:55.810Z,31.60
2019-02-23T07:47:28.983Z,31.40
2019-02-23T07:50:03.894Z,31.20
2019-02-23T07:52:37.898Z,31.10
2019-02-23T07:55:12.192Z,31.30
2019-02-23T07:57:46.634Z,31.60
2019-02-23T08:00:21.220Z,31.00
2019-02-23T08:02:54.891Z,31.00
2019-02-23T08:05:29.436Z,31.40
2019-02-23T08:08:03.856Z,31.40
2019-02-23T08:10:39.740Z,31.30
2019-02-23T08:13:14.635Z,31.10
2019-02-23T08:15:48.603Z,30.80
2019-02-23T08:18:22.632Z,30.90
2019-02-23T08:20:56.090Z,31.00
2019-02-23T08:23:30.885Z,30.90
2019-02-23T08:26:05.201Z,30.90
2019-02-23T08:28:38.934Z,31.00
2019-02-23T08:31:13.470Z,31.10
2019-02-23T08:33:48.235Z,30.90
2019-02-23T08:36:23.752Z,31.00
2019-02-23T08:38:57.728Z,31.70
2019-02-23T08:41:32.912Z,32.40
2019-02-23T08:44:06.213Z,31.00
2019-02-23T08:46:40.612Z,30.90
2019-02-23T08:49:15.020Z,31.30
2019-02-23T08:51:50.834Z,31.30
2019-02-23T08:54:25.188Z,29.80
2019-02-23T08:57:00.107Z,29.60
2019-02-23T08:59:34.484Z,30.30
2019-02-23T09:02:08.216Z,30.30
2019-02-23T09:04:44.264Z,30.40
2019-02-23T09:07:19.295Z,30.20
2019-02-23T09:09:53.316Z,29.20
2019-02-23T09:12:27.582Z,29.60
2019-02-23T09:15:01.589Z,29.90
2019-02-23T09:17:36.443Z,28.80
2019-02-23T09:20:11.196Z,28.90
2019-02-23T09:22:46.292Z,28.30
2019-02-23T09:25:20.741Z,28.40
2019-02-23T09:27:55.781Z,28.60
2019-02-23T09:30:32.744Z,29.10
2019-02-23T09:33:06.646Z,27.90
2019-02-23T09:35:43.463Z,27.10
2019-02-23T09:38:19.651Z,27.20
2019-02-23T09:40:54.676Z,27.00
2019-02-23T09:43:28.389Z,26.40
2019-02-23T09:46:01.380Z,26.30
2019-02-23T09:48:37.137Z,26.80
2019-02-23T09:51:12.458Z,27.00
2019-02-23T09:53:48.059Z,27.30
2019-02-23T09:56:22.330Z,26.50
2019-02-23T09:58:56.504Z,25.60
2019-02-23T10:01:29.865Z,26.60
2019-02-23T10:04:03.121Z,27.50
2019-02-23T10:06:37.036Z,27.50
2019-02-23T10:09:11.431Z,27.50
2019-02-23T10:11:47.397Z,27.30
2019-02-23T10:14:21.530Z,26.60
2019-02-23T10:16:56.044Z,26.60
2019-02-23T10:19:30.624Z,26.30
2019-02-23T10:22:06.252Z,26.00
2019-02-23T10:24:40.985Z,26.20
2019-02-23T10:27:15.819Z,26.50
2019-02-23T10:29:50.393Z,26.50
2019-02-23T10:32:25.804Z,26.30
2019-02-23T10:35:00.148Z,26.10
2019-02-23T10:37:35.628Z,26.00
2019-02-23T10:40:10.188Z,26.10
2019-02-23T10:42:44.485Z,25.80
2019-02-23T10:45:17.789Z,26.50
2019-02-23T10:47:51.159Z,25.90
2019-02-23T10:50:25.181Z,26.00
2019-02-23T10:52:58.530Z,25.80
2019-02-23T10:55:33.740Z,25.60
2019-02-23T10:58:08.590Z,25.20
2019-02-23T11:00:42.219Z,25.90
2019-02-23T11:03:16.183Z,25.20
2019-02-23T11:05:51.044Z,25.30
2019-02-23T11:08:24.307Z,25.70
2019-02-23T11:10:58.339Z,23.80
2019-02-23T11:13:33.255Z,23.80
2019-02-23T11:16:08.815Z,24.60
2019-02-23T11:18:43.074Z,25.10
2019-02-23T11:21:18.243Z,24.50
2019-02-23T11:23:53.495Z,24.60
2019-02-23T11:26:27.984Z,24.30
2019-02-23T11:29:02.256Z,24.50
2019-02-23T11:31:38.164Z,24.90
2019-02-23T11:34:12.625Z,25.10
2019-02-23T11:36:48.008Z,25.10
2019-02-23T11:39:22.793Z,25.10
2019-02-23T11:41:57.671Z,24.80
2019-02-23T11:44:33.895Z,24.70
2019-02-23T11:47:09.032Z,24.20
2019-02-23T11:49:43.226Z,24.20
2019-02-23T11:52:18.103Z,24.40
2019-02-23T11:54:52.616Z,24.00
2019-02-23T11:57:27.743Z,23.40
2019-02-23T12:00:03.434Z,23.00
2019-02-23T12:02:38.590Z,23.10
2019-02-23T12:05:13.989Z,23.10
2019-02-23T12:07:48.986Z,24.10
2019-02-23T12:10:24.499Z,23.00
2019-02-23T12:12:58.271Z,22.90
2019-02-23T12:15:32.452Z,22.10
2019-02-23T12:18:06.189Z,22.80
2019-02-23T12:20:41.545Z,22.10
2019-02-23T12:23:16.469Z,21.80
2019-02-23T12:25:51.484Z,22.10
2019-02-23T12:28:26.642Z,22.70
2019-02-23T12:31:01.572Z,22.20
2019-02-23T12:33:37.186Z,22.70
2019-02-23T12:36:12.131Z,22.90
2019-02-23T12:38:46.436Z,22.70
2019-02-23T12:41:21.409Z,22.80
2019-02-23T12:43:56.400Z,22.70
2019-02-23T12:46:31.698Z,23.10
2019-02-23T12:49:07.145Z,23.20
2019-02-23T12:51:41.745Z,22.70
2019-02-23T12:54:17.233Z,22.30
2019-02-23T12:56:52.941Z,22.20
2019-02-23T12:59:29.725Z,22.30
2019-02-23T13:02:06.094Z,22.40
2019-02-23T13:04:41.109Z,22.50
2019-02-23T13:07:14.977Z,22.30
2019-02-23T13:10:04.682Z,22.40
2019-02-23T13:13:20.282Z,22.10
2019-02-23T13:16:32.062Z,21.30
2019-02-23T13:20:06.197Z,20.90
2019-02-23T13:23:55.475Z,20.40
2019-02-23T13:27:31.468Z,19.80
2019-02-23T13:31:19.118Z,20.10
2019-02-23T13:34:33.541Z,20.40
2019-02-23T13:38:05.397Z,20.80
2019-02-23T13:41:23.971Z,21.10
2019-02-23T13:45:04.262Z,21.50
2019-02-23T13:48:24.632Z,20.90
2019-02-23T13:52:08.613Z,20.60
2019-02-23T13:55:44.052Z,20.80
2019-02-23T13:58:49.435Z,20.90
2019-02-23T14:02:26.960Z,20.60
2019-02-23T14:06:01.526Z,20.30
2019-02-23T14:10:11.587Z,21.00
2019-02-23T14:13:18.283Z,21.20
2019-02-23T14:17:04.396Z,21.40
2019-02-23T14:20:53.442Z,22.10
2019-02-23T14:24:19.598Z,21.70
2019-02-23T14:28:00.814Z,21.50
2019-02-23T14:31:59.802Z,22.00
2019-02-23T14:35:27.101Z,21.70
2019-02-23T14:38:56.743Z,21.80
2019-02-23T14:42:17.079Z,21.90
2019-02-23T14:45:54.849Z,21.10
2019-02-23T14:49:36.071Z,21.20
2019-02-23T14:52:55.035Z,21.20
2019-02-23T14:56:16.693Z,20.70
2019-02-23T14:59:38.540Z,21.40
2019-02-23T15:03:10.734Z,21.40
2019-02-23T15:06:27.611Z,21.70
2019-02-23T15:09:45.573Z,21.90
2019-02-23T15:13:20.854Z,22.20
2019-02-23T15:16:59.479Z,21.80
2019-02-23T15:20:14.907Z,21.80
2019-02-23T15:23:55.465Z,21.80
2019-02-23T15:27:07.438Z,21.90
2019-02-23T15:30:25.504Z,22.30
2019-02-23T15:33:43.806Z,22.00
2019-02-23T15:37:03.474Z,22.60
2019-02-23T15:40:43.217Z,23.50
2019-02-23T15:44:08.726Z,23.60
2019-02-23T15:48:01.623Z,23.50
2019-02-23T15:50:40.524Z,23.30
2019-02-23T15:53:15.007Z,23.80
2019-02-23T15:55:49.435Z,23.80
2019-02-23T15:58:24.093Z,23.80
2019-02-23T16:00:58.706Z,24.60
2019-02-23T16:03:32.274Z,24.20
2019-02-23T16:06:07.149Z,24.20
2019-02-23T16:08:40.852Z,24.30
2019-02-23T16:11:14.503Z,24.10
2019-02-23T16:13:48.660Z,24.50
2019-02-23T16:16:22.826Z,24.20
2019-02-23T16:18:56.629Z,24.30
2019-02-23T16:21:29.820Z,24.70
2019-02-23T16:24:03.151Z,25.20
2019-02-23T16:26:36.474Z,24.80
2019-02-23T16:29:09.708Z,24.80
2019-02-23T16:31:42.814Z,24.50
2019-02-23T16:34:16.447Z,24.90
2019-02-23T16:36:50.459Z,24.90
2019-02-23T16:39:23.505Z,24.60
2019-02-23T16:41:56.856Z,24.60
2019-02-23T16:44:30.483Z,24.80
2019-02-23T16:47:04.208Z,24.60
2019-02-23T16:49:37.613Z,25.10
2019-02-23T16:52:12.386Z,25.20
2019-02-23T16:54:48.336Z,25.70
2019-02-23T16:57:24.531Z,25.60
2019-02-23T17:00:00.049Z,26.40
2019-02-23T17:02:36.179Z,26.60
2019-02-23T17:05:10.456Z,26.90
2019-02-23T17:07:45.433Z,26.90
2019-02-23T17:10:21.551Z,27.40
2019-02-23T17:12:55.793Z,27.50
2019-02-23T17:15:30.844Z,27.80
2019-02-23T17:18:05.811Z,27.80
2019-02-23T17:20:40.865Z,28.00
2019-02-23T17:23:16.128Z,27.50
2019-02-23T17:26:03.391Z,27.50
2019-02-23T17:28:27.965Z,27.40
2019-02-23T17:31:02.827Z,27.60
2019-02-23T17:33:37.991Z,27.40
2019-02-23T17:36:12.472Z,27.80
2019-02-23T17:38:46.911Z,27.40
2019-02-23T17:41:21.192Z,27.00
2019-02-23T17:43:56.190Z,27.20
2019-02-23T17:46:31.920Z,27.30
2019-02-23T17:49:07.082Z,27.10
2019-02-23T17:51:41.730Z,27.10
2019-02-23T17:54:15.150Z,27.30
2019-02-23T17:56:50.168Z,27.70
2019-02-23T17:59:25.374Z,27.90
2019-02-23T18:02:00.359Z,28.10
2019-02-23T18:04:34.246Z,28.20
2019-02-23T18:07:08.668Z,27.80
2019-02-23T18:09:43.774Z,27.70
2019-02-23T18:12:20.159Z,27.50
2019-02-23T18:14:55.952Z,27.10
2019-02-23T18:17:31.130Z,26.90
2019-02-23T18:20:05.490Z,27.10
2019-02-23T18:22:40.614Z,26.70
2019-02-23T18:25:16.238Z,27.20
2019-02-23T18:27:51.788Z,26.60
2019-02-23T18:30:26.919Z,26.50
2019-02-23T18:33:01.937Z,26.60
2019-02-23T18:35:37.755Z,26.80
2019-02-23T18:38:13.004Z,26.60
2019-02-23T18:40:47.866Z,27.30
2019-02-23T18:43:25.272Z,26.90
2019-02-23T18:45:59.040Z,26.90
2019-02-23T18:48:33.041Z,26.70
2019-02-23T18:51:08.423Z,25.60
2019-02-23T18:53:41.879Z,25.50
2019-02-23T18:56:15.154Z,25.50
2019-02-23T18:58:50.177Z,25.40
2019-02-23T19:01:23.624Z,25.30
2019-02-23T19:03:59.248Z,25.30
2019-02-23T19:06:35.509Z,25.70
2019-02-23T19:09:10.516Z,26.10
2019-02-23T19:11:46.409Z,26.00
2019-02-23T19:14:22.517Z,26.80
2019-02-23T19:16:56.427Z,26.10
2019-02-23T19:19:31.132Z,26.20
2019-02-23T19:22:05.542Z,26.50
2019-02-23T19:24:41.008Z,26.70
2019-02-23T19:27:17.078Z,26.90
2019-02-23T19:29:52.536Z,27.10
2019-02-23T19:32:28.499Z,27.30
2019-02-23T19:35:04.818Z,27.40
2019-02-23T19:37:39.788Z,27.80
2019-02-23T19:40:15.114Z,28.10
2019-02-23T19:42:50.586Z,28.00
2019-02-23T19:45:26.489Z,28.10
2019-02-23T19:48:01.824Z,28.10
2019-02-23T19:50:42.601Z,27.90
2019-02-23T19:53:18.185Z,28.40
2019-02-23T19:55:53.511Z,28.60
2019-02-23T19:58:29.730Z,28.50
2019-02-23T20:01:06.622Z,28.60
2019-02-23T20:03:43.858Z,29.40
2019-02-23T20:06:19.460Z,29.10
2019-02-23T20:08:53.033Z,28.80
2019-02-23T20:11:26.665Z,29.00
2019-02-23T20:13:59.160Z,29.10
2019-02-23T20:16:31.825Z,29.30
2019-02-23T20:19:05.498Z,29.00
2019-02-23T20:21:38.551Z,29.10
2019-02-23T20:24:11.935Z,29.10
2019-02-23T20:26:44.978Z,29.40
2019-02-23T20:29:17.945Z,29.70
2019-02-23T20:31:51.427Z,29.70
2019-02-23T20:34:23.887Z,29.90
2019-02-23T20:36:58.073Z,30.10
2019-02-23T20:39:31.881Z,30.00
2019-02-23T20:42:05.314Z,30.50
2019-02-23T20:44:39.134Z,30.30
2019-02-23T20:47:14.207Z,30.00
2019-02-23T20:49:47.755Z,30.40
2019-02-23T20:52:21.431Z,30.20
2019-02-23T20:54:56.695Z,30.30
2019-02-23T20:57:30.830Z,30.30
2019-02-23T21:00:04.159Z,30.60
2019-02-23T21:02:40.196Z,30.80
2019-02-23T21:05:14.553Z,30.60
2019-02-23T21:07:49.167Z,31.00
2019-02-23T21:10:22.958Z,30.90
2019-02-23T21:12:58.395Z,32.10
2019-02-23T21:15:32.277Z,31.20
2019-02-23T21:18:08.154Z,30.40
2019-02-23T21:20:42.205Z,30.60
2019-02-23T21:23:16.193Z,30.40
2019-02-23T21:25:50.538Z,30.40
2019-02-23T21:28:24.728Z,29.90
2019-02-23T21:30:59.472Z,29.90
2019-02-23T21:33:35.020Z,30.00
2019-02-23T21:36:15.038Z,29.90
2019-02-23T21:38:50.287Z,30.00
2019-02-23T21:41:25.633Z,30.00
2019-02-23T21:44:00.612Z,29.90
2019-02-23T21:46:35.015Z,29.80
2019-02-23T21:49:09.437Z,29.70
2019-02-23T21:51:44.736Z,29.80
2019-02-23T21:54:19.953Z,30.00
2019-02-23T21:56:56.573Z,30.60
2019-02-23T21:59:31.849Z,30.30
2019-02-23T22:02:07.816Z,30.20
2019-02-23T22:04:43.723Z,30.60
2019-02-23T22:07:19.125Z,30.20
2019-02-23T22:09:53.491Z,30.50
2019-02-23T22:12:28.142Z,30.50
2019-02-23T22:15:01.919Z,30.10
2019-02-23T22:17:35.783Z,30.20
2019-02-23T22:20:09.525Z,30.00
2019-02-23T22:22:44.613Z,30.00
2019-02-23T22:25:21.987Z,30.10
2019-02-23T22:27:59.866Z,30.20
2019-02-23T22:30:34.610Z,30.40
2019-02-23T22:33:10.046Z,30.40
2019-02-23T22:35:43.902Z,30.60
2019-02-23T22:38:19.900Z,30.80
2019-02-23T22:40:54.783Z,30.70
2019-02-23T22:43:29.279Z,30.70
2019-02-23T22:46:04.142Z,30.70
2019-02-23T22:48:38.416Z,31.10
2019-02-23T22:51:13.343Z,31.00
2019-02-23T22:53:47.188Z,31.30
2019-02-23T22:56:22.812Z,31.50
2019-02-23T22:58:57.825Z,31.10
2019-02-23T23:01:33.793Z,31.10
2019-02-23T23:04:07.774Z,31.30
2019-02-23T23:06:47.076Z,31.40
2019-02-23T23:09:21.736Z,31.70
2019-02-23T23:11:59.654Z,31.90
2019-02-23T23:14:36.269Z,32.20
2019-02-23T23:17:10.909Z,32.70
2019-02-23T23:19:46.739Z,32.60
2019-02-23T23:22:21.666Z,33.00
2019-02-23T23:24:55.703Z,33.30
2019-02-23T23:27:30.439Z,33.00
2019-02-23T23:30:05.536Z,33.20
2019-02-23T23:32:40.828Z,33.10
2019-02-23T23:35:15.180Z,33.50
2019-02-23T23:37:50.876Z,33.60
2019-02-23T23:40:24.940Z,33.00
2019-02-23T23:42:59.550Z,32.40
2019-02-23T23:45:33.478Z,32.20
2019-02-23T23:48:07.950Z,32.40
2019-02-23T23:50:42.365Z,32.40
2019-02-23T23:53:16.521Z,31.50
2019-02-23T23:55:50.324Z,30.60
2019-02-23T23:58:26.596Z,30.50
